ASH weather

Boire Field
Nashua, New Hampshire, United States

Public forecast

Using degrees Fahrenheit for public forecast. Weather courtesy of forecast.io.

Current aviation weather report (METAR) for Boire Field

Retrieved 2019/10/17 00:56 UTC (30 minutes ago):

KASH 170056Z 11009KT 8SM -RA OVC014 12/12 A2966 RMK AO2 RAB11 SLP049 P0000 T01220117

Closest aviation forecast (TAF) to Boire Field

Closest forecast is Manchester-Boston Regional Airport, 9.7 nm (18.0 km) NNE. Retrieved 2019-10-17 00:27 UTC (59 minutes ago):

TAF KMHT 162325Z 1700/1724 08010KT P6SM OVC020 FM170400 08014G22KT 4SM RA BR OVC010 WS020/09050KT FM171000 03016G28KT 4SM +RA BR OVC003 FM171300 27012G20KT 4SM -RA OVC008 FM172000 26013G28KT P6SM OVC010